createdAt,value
2023-02-03T00:01:20.302Z,101091.37
2023-02-03T00:04:28.297Z,101093.53
2023-02-03T00:07:50.358Z,101094.03
2023-02-03T00:10:53.030Z,101111.19
2023-02-03T00:14:07.355Z,101104.84
2023-02-03T00:17:15.297Z,101111.41
2023-02-03T00:20:24.752Z,101117.09
2023-02-03T00:23:40.288Z,101122.78
2023-02-03T00:26:43.196Z,101130.03
2023-02-03T00:29:58.348Z,101140.19
2023-02-03T00:33:00.246Z,101149.00
2023-02-03T00:36:16.304Z,101140.94
2023-02-03T00:39:25.362Z,101141.31
2023-02-03T00:42:35.853Z,101150.25
2023-02-03T00:45:44.333Z,101154.16
2023-02-03T00:48:53.268Z,101159.53
2023-02-03T00:52:01.373Z,101164.34
2023-02-03T00:55:10.003Z,101165.69
2023-02-03T00:58:18.344Z,101164.59
2023-02-03T01:01:33.624Z,101179.37
2023-02-03T01:04:35.702Z,101177.25
2023-02-03T01:07:57.342Z,101182.37
2023-02-03T01:11:09.387Z,101186.00
2023-02-03T01:14:17.334Z,101187.81
2023-02-03T01:17:26.165Z,101192.81
2023-02-03T01:20:34.393Z,101202.78
2023-02-03T01:23:50.336Z,101200.56
2023-02-03T01:26:52.221Z,101196.50
2023-02-03T01:30:07.361Z,101203.00
2023-02-03T01:33:09.317Z,101205.56
2023-02-03T01:36:25.417Z,101197.50
2023-02-03T01:39:34.265Z,101205.91
2023-02-03T01:42:42.361Z,101209.94
2023-02-03T01:45:57.397Z,101208.12
2023-02-03T01:49:19.917Z,101204.91
2023-02-03T01:52:28.352Z,101214.41
2023-02-03T01:55:49.359Z,101210.37
2023-02-03T01:58:51.850Z,101217.50
2023-02-03T02:02:07.404Z,101214.94
2023-02-03T02:05:16.261Z,101215.44
2023-02-03T02:08:38.419Z,101217.44
2023-02-03T02:11:53.402Z,101218.81
2023-02-03T02:15:03.096Z,101213.69
2023-02-03T02:18:35.345Z,101208.72
2023-02-03T02:21:56.581Z,101200.31
2023-02-03T02:25:31.371Z,101201.69
2023-02-03T02:29:00.389Z,101198.09
2023-02-03T02:32:34.318Z,101204.94
2023-02-03T02:36:16.435Z,101204.25
2023-02-03T02:39:54.452Z,101207.34
2023-02-03T02:43:29.394Z,101212.81
2023-02-03T02:46:44.439Z,101210.84
2023-02-03T02:50:13.440Z,101219.47
2023-02-03T02:53:24.441Z,101217.44
2023-02-03T02:56:36.496Z,101216.16
2023-02-03T02:59:44.376Z,101221.38
2023-02-03T03:02:59.377Z,101220.88
2023-02-03T03:06:12.379Z,101232.19
2023-02-03T03:09:32.375Z,101233.22
2023-02-03T03:12:38.036Z,101231.56
2023-02-03T03:15:52.421Z,101211.78
2023-02-03T03:19:07.359Z,101221.03
2023-02-03T03:22:27.444Z,101228.41
2023-02-03T03:25:45.351Z,101217.09
2023-02-03T03:29:03.726Z,101226.97
2023-02-03T03:32:12.377Z,101220.88
2023-02-03T03:35:21.131Z,101221.56
2023-02-03T03:38:37.391Z,101220.63
2023-02-03T03:42:03.211Z,101212.81
2023-02-03T03:45:21.369Z,101207.41
2023-02-03T03:48:53.458Z,101215.91
2023-02-03T03:52:01.319Z,101223.37
2023-02-03T03:55:19.466Z,101227.47
2023-02-03T03:58:27.902Z,101219.25
2023-02-03T04:01:43.555Z,101223.19
2023-02-03T04:04:48.088Z,101212.59
2023-02-03T04:08:09.434Z,101205.47
2023-02-03T04:11:18.387Z,101205.47
2023-02-03T04:14:34.409Z,101208.72
2023-02-03T04:17:36.257Z,101203.16
2023-02-03T04:20:51.441Z,101202.34
2023-02-03T04:23:59.424Z,101197.75
2023-02-03T04:27:09.151Z,101196.97
2023-02-03T04:30:18.458Z,101194.34
2023-02-03T04:33:27.180Z,101196.81
2023-02-03T04:36:35.398Z,101195.84
2023-02-03T04:39:44.626Z,101191.31
2023-02-03T04:42:59.384Z,101190.97
2023-02-03T04:46:07.479Z,101191.81
2023-02-03T04:49:16.046Z,101202.25
2023-02-03T04:52:30.567Z,101198.41
2023-02-03T04:55:32.571Z,101197.81
2023-02-03T04:58:47.496Z,101190.59
2023-02-03T05:01:55.418Z,101189.69
2023-02-03T05:05:04.368Z,101195.69
2023-02-03T05:08:19.479Z,101187.06
2023-02-03T05:11:28.558Z,101190.66
2023-02-03T05:14:37.399Z,101183.91
2023-02-03T05:17:52.448Z,101185.34
2023-02-03T05:21:01.379Z,101183.38
2023-02-03T05:24:09.463Z,101188.69
2023-02-03T05:27:18.119Z,101196.75
2023-02-03T05:30:26.896Z,101182.87
2023-02-03T05:33:35.152Z,101194.09
2023-02-03T05:36:43.528Z,101200.69
2023-02-03T05:39:58.492Z,101191.53
2023-02-03T05:43:06.462Z,101201.72
2023-02-03T05:46:21.471Z,101199.59
2023-02-03T05:49:24.366Z,101193.56
2023-02-03T05:52:40.483Z,101209.72
2023-02-03T05:55:42.320Z,101203.19
2023-02-03T05:58:57.441Z,101206.44
2023-02-03T06:02:06.429Z,101212.28
2023-02-03T06:05:15.128Z,101210.22
2023-02-03T06:08:32.955Z,101198.91
2023-02-03T06:11:41.292Z,101204.72
2023-02-03T06:14:49.443Z,101199.41
2023-02-03T06:17:58.108Z,101199.41
2023-02-03T06:21:13.411Z,101198.66
2023-02-03T06:24:21.440Z,101201.31
2023-02-03T06:27:30.153Z,101204.00
2023-02-03T06:30:38.548Z,101218.59
2023-02-03T06:33:47.092Z,101219.53
2023-02-03T06:36:55.469Z,101219.53
2023-02-03T06:40:11.573Z,101216.72
2023-02-03T06:43:20.488Z,101229.72
2023-02-03T06:46:35.517Z,101230.75
2023-02-03T06:49:44.064Z,101230.66
2023-02-03T06:52:52.636Z,101236.59
2023-02-03T06:56:01.235Z,101228.38
2023-02-03T06:59:13.559Z,101215.75
2023-02-03T07:02:22.402Z,101222.78
2023-02-03T07:05:37.537Z,101224.06
2023-02-03T07:08:52.525Z,101212.19
2023-02-03T07:12:01.531Z,101209.84
2023-02-03T07:15:17.765Z,101212.66
2023-02-03T07:21:55.691Z,101208.66
2023-02-03T07:25:11.488Z,101212.50
2023-02-03T07:28:23.289Z,101205.09
2023-02-03T07:31:31.772Z,101211.56
2023-02-03T07:34:46.528Z,101213.88
2023-02-03T07:37:54.502Z,101202.94
2023-02-03T07:41:10.529Z,101220.88
2023-02-03T07:44:12.909Z,101223.00
2023-02-03T07:47:27.535Z,101223.72
2023-02-03T07:50:36.743Z,101228.34
2023-02-03T07:53:45.571Z,101237.44
2023-02-03T07:57:00.499Z,101231.91
2023-02-03T08:00:03.581Z,101226.78
2023-02-03T08:03:20.499Z,101234.69
2023-02-03T08:06:23.110Z,101248.16
2023-02-03T08:09:44.485Z,101243.97
2023-02-03T08:13:01.528Z,101234.63
2023-02-03T08:16:11.350Z,101231.25
2023-02-03T08:19:26.485Z,101230.34
2023-02-03T08:22:35.296Z,101231.22
2023-02-03T08:25:43.532Z,101231.38
2023-02-03T08:28:59.508Z,101233.09
2023-02-03T08:32:11.811Z,101230.09
2023-02-03T08:35:24.568Z,101239.47
2023-02-03T08:39:04.925Z,101250.34
2023-02-03T08:42:20.493Z,101247.56
2023-02-03T08:45:35.674Z,101252.12
2023-02-03T08:48:44.547Z,101248.03
2023-02-03T08:51:54.069Z,101257.56
2023-02-03T08:55:03.612Z,101256.75
2023-02-03T08:58:18.654Z,101252.62
2023-02-03T09:01:33.582Z,101256.63
2023-02-03T09:04:35.535Z,101256.72
2023-02-03T09:07:52.288Z,101265.25
2023-02-03T09:10:57.405Z,101265.84
2023-02-03T09:14:12.543Z,101261.56
2023-02-03T09:17:14.707Z,101262.41
2023-02-03T09:20:30.015Z,101268.94
2023-02-03T09:23:32.662Z,101272.81
2023-02-03T09:26:47.550Z,101262.31
2023-02-03T09:29:55.648Z,101268.06
2023-02-03T09:33:04.192Z,101270.47
2023-02-03T09:36:13.525Z,101265.59
2023-02-03T09:39:23.296Z,101260.44
2023-02-03T09:42:48.519Z,101247.63
2023-02-03T09:46:05.586Z,101242.19
2023-02-03T09:49:35.608Z,101234.00
2023-02-03T09:52:51.535Z,101224.78
2023-02-03T09:55:54.885Z,101215.28
2023-02-03T09:59:11.604Z,101213.91
2023-02-03T10:03:11.557Z,101194.06
2023-02-03T10:06:43.532Z,101184.72
2023-02-03T10:10:38.555Z,101182.25
2023-02-03T10:14:16.572Z,101169.06
2023-02-03T10:17:40.499Z,101154.97
2023-02-03T10:21:01.568Z,101153.13
2023-02-03T10:24:10.347Z,101137.16
2023-02-03T10:27:29.548Z,101130.69
2023-02-03T10:30:46.678Z,101124.63
2023-02-03T10:34:00.419Z,101115.88
2023-02-03T10:37:32.580Z,101111.19
2023-02-03T10:40:47.589Z,101092.78
2023-02-03T10:43:51.903Z,101104.75
2023-02-03T10:47:06.554Z,101093.59
2023-02-03T10:50:29.427Z,101088.03
2023-02-03T10:53:34.921Z,101076.53
2023-02-03T10:56:49.589Z,101077.00
2023-02-03T11:00:22.342Z,101074.00
2023-02-03T11:03:35.573Z,101057.06
2023-02-03T11:10:39.239Z,101045.69
2023-02-03T11:13:58.712Z,101033.63
2023-02-03T11:17:07.782Z,101028.88
2023-02-03T11:20:23.692Z,101017.75
2023-02-03T11:23:26.095Z,101005.50
2023-02-03T11:26:46.584Z,101008.97
2023-02-03T11:30:00.568Z,101004.19
2023-02-03T11:33:19.881Z,100977.25
2023-02-03T11:36:29.591Z,100992.91
2023-02-03T11:39:38.252Z,100979.41
2023-02-03T11:42:48.571Z,100960.50
2023-02-03T11:46:10.829Z,100954.75
2023-02-03T11:49:34.479Z,100957.47
2023-02-03T11:53:10.651Z,100944.75
2023-02-03T11:56:53.558Z,100936.09
2023-02-03T12:00:10.059Z,100928.03
2023-02-03T12:03:44.628Z,100911.25
2023-02-03T12:07:08.565Z,100907.53
2023-02-03T12:10:40.572Z,100897.22
2023-02-03T12:14:12.702Z,100888.37
2023-02-03T12:17:41.623Z,100871.25
2023-02-03T12:21:19.672Z,100868.41
2023-02-03T12:24:54.558Z,100858.94
2023-02-03T12:28:33.761Z,100842.72
2023-02-03T12:31:53.649Z,100835.03
2023-02-03T12:35:20.791Z,100825.84
2023-02-03T12:38:45.604Z,100808.59
2023-02-03T12:42:01.716Z,100804.03
2023-02-03T12:45:24.614Z,100793.50
2023-02-03T12:48:59.657Z,100787.66
2023-02-03T12:52:24.320Z,100777.88
2023-02-03T12:55:48.662Z,100764.34
2023-02-03T12:59:09.660Z,100754.56
2023-02-03T13:02:28.722Z,100751.53
2023-02-03T13:05:44.944Z,100744.22
2023-02-03T13:09:09.605Z,100730.59
2023-02-03T13:12:47.848Z,100727.66
2023-02-03T13:15:57.611Z,100718.06
2023-02-03T13:19:53.673Z,100707.75
2023-02-03T13:23:07.840Z,100690.25
2023-02-03T13:26:52.644Z,100693.16
2023-02-03T13:30:18.667Z,100689.25
2023-02-03T13:33:56.638Z,100672.25
2023-02-03T13:37:23.606Z,100667.19
2023-02-03T13:40:58.627Z,100657.53
2023-02-03T13:44:12.840Z,100657.78
2023-02-03T13:47:27.775Z,100653.97
2023-02-03T13:50:38.613Z,100634.97
2023-02-03T13:53:50.592Z,100635.41
2023-02-03T13:57:02.486Z,100626.66
2023-02-03T14:00:33.661Z,100619.34
2023-02-03T14:03:44.258Z,100618.22
2023-02-03T14:07:06.634Z,100608.66
2023-02-03T14:10:32.183Z,100604.22
2023-02-03T14:13:40.640Z,100587.09
2023-02-03T14:16:54.691Z,100586.56
2023-02-03T14:20:03.762Z,100578.94
2023-02-03T14:23:19.652Z,100587.00
2023-02-03T14:26:41.726Z,100575.44
2023-02-03T14:30:19.630Z,100574.03
2023-02-03T14:33:50.188Z,100567.47
2023-02-03T14:37:20.619Z,100563.44
2023-02-03T14:40:43.689Z,100561.50
2023-02-03T14:44:07.130Z,100556.81
2023-02-03T14:47:40.653Z,100541.81
2023-02-03T14:51:12.733Z,100534.59
2023-02-03T14:54:41.196Z,100528.97
2023-02-03T14:58:00.745Z,100520.03
2023-02-03T15:01:25.016Z,100523.09
2023-02-03T15:04:33.695Z,100523.22
2023-02-03T15:07:56.689Z,100516.28
2023-02-03T15:11:31.621Z,100506.81
2023-02-03T15:14:46.640Z,100497.03
2023-02-03T15:17:50.137Z,100491.78
2023-02-03T15:21:05.652Z,100490.53
2023-02-03T15:24:16.808Z,100479.19
2023-02-03T15:27:34.647Z,100477.13
2023-02-03T15:30:37.076Z,100476.91
2023-02-03T15:33:53.632Z,100459.03
2023-02-03T15:37:00.265Z,100453.03
2023-02-03T15:40:22.695Z,100447.59
2023-02-03T15:43:39.705Z,100451.88
2023-02-03T15:46:58.819Z,100457.37
2023-02-03T15:50:13.673Z,100438.66
2023-02-03T15:53:45.338Z,100445.09
2023-02-03T15:57:01.695Z,100446.53
2023-02-03T16:00:28.719Z,100425.28
2023-02-03T16:03:48.720Z,100432.00
2023-02-03T16:07:04.676Z,100422.09
2023-02-03T16:10:31.256Z,100430.66
2023-02-03T16:13:49.722Z,100421.00
2023-02-03T16:17:05.312Z,100425.66
2023-02-03T16:20:31.852Z,100413.50
2023-02-03T16:23:33.861Z,100416.28
2023-02-03T16:26:48.698Z,100403.59
2023-02-03T16:30:28.651Z,100394.34
2023-02-03T16:33:38.695Z,100384.44
2023-02-03T16:36:55.424Z,100379.13
2023-02-03T16:40:03.747Z,100369.03
2023-02-03T16:43:21.688Z,100364.06
2023-02-03T16:46:29.702Z,100364.59
2023-02-03T16:49:44.685Z,100362.44
2023-02-03T16:52:46.536Z,100346.84
2023-02-03T16:56:03.677Z,100341.81
2023-02-03T16:59:12.324Z,100336.41
2023-02-03T17:02:20.814Z,100319.50
2023-02-03T17:05:29.622Z,100302.41
2023-02-03T17:08:46.761Z,100294.31
2023-02-03T17:11:55.685Z,100279.84
2023-02-03T17:15:06.482Z,100282.00
2023-02-03T17:18:17.722Z,100262.81
2023-02-03T17:21:35.730Z,100274.44
2023-02-03T17:24:37.779Z,100268.97
2023-02-03T17:27:53.782Z,100267.28
2023-02-03T17:31:06.337Z,100259.81
2023-02-03T17:34:20.676Z,100252.03
2023-02-03T17:37:22.568Z,100254.97
2023-02-03T17:54:24.368Z,100219.50
2023-02-03T17:57:38.734Z,100219.63
2023-02-03T18:00:47.096Z,100218.31
2023-02-03T18:04:04.753Z,100210.19
2023-02-03T18:07:07.949Z,100213.94
2023-02-03T18:10:29.943Z,100202.69
2023-02-03T18:13:35.077Z,100205.59
2023-02-03T18:16:50.690Z,100189.16
2023-02-03T18:19:58.734Z,100193.47
2023-02-03T18:23:07.909Z,100186.31
2023-02-03T18:26:17.738Z,100184.13
2023-02-03T18:29:28.119Z,100174.28
2023-02-03T18:32:37.042Z,100158.84
2023-02-03T18:35:51.699Z,100154.50
2023-02-03T18:39:00.349Z,100149.50
2023-02-03T18:42:14.709Z,100133.88
2023-02-03T18:45:23.557Z,100142.72
2023-02-03T18:48:32.734Z,100146.44
2023-02-03T18:51:48.724Z,100148.75
2023-02-03T18:54:57.561Z,100156.56
2023-02-03T18:58:05.744Z,100160.13
2023-02-03T19:01:28.846Z,100151.63
2023-02-03T19:04:46.748Z,100156.25
2023-02-03T19:07:55.687Z,100158.78
2023-02-03T19:11:11.169Z,100175.97
2023-02-03T19:14:20.718Z,100170.34
2023-02-03T19:17:29.393Z,100151.50
2023-02-03T19:20:43.720Z,100134.31
2023-02-03T19:23:52.777Z,100133.53
2023-02-03T19:27:02.664Z,100128.06
2023-02-03T19:30:11.696Z,100118.78
2023-02-03T19:33:20.938Z,100125.41
2023-02-03T19:36:29.750Z,100140.00
2023-02-03T19:39:38.793Z,100146.03
2023-02-03T19:42:47.706Z,100117.63
2023-02-03T19:45:56.709Z,100096.94
2023-02-03T19:49:05.757Z,100114.75
2023-02-03T19:52:21.769Z,100118.37
2023-02-03T19:55:23.629Z,100134.38
2023-02-03T19:58:40.761Z,100126.13
2023-02-03T20:01:42.729Z,100123.16
2023-02-03T20:04:57.779Z,100128.28
2023-02-03T20:08:06.769Z,100125.06
2023-02-03T20:11:22.872Z,100133.78
2023-02-03T20:14:31.793Z,100125.03
2023-02-03T20:17:47.804Z,100126.72
2023-02-03T20:20:57.800Z,100125.25
2023-02-03T20:24:14.781Z,100125.34
2023-02-03T20:27:17.091Z,100109.13
2023-02-03T20:30:33.170Z,100110.25
2023-02-03T20:33:42.707Z,100117.53
2023-02-03T20:36:51.769Z,100119.34
2023-02-03T20:40:07.813Z,100105.56
2023-02-03T20:43:16.873Z,100107.25
2023-02-03T20:46:33.815Z,100104.56
2023-02-03T20:49:43.041Z,100096.34
2023-02-03T20:52:59.765Z,100088.78
2023-02-03T20:56:01.963Z,100076.59
2023-02-03T20:59:18.777Z,100071.13
2023-02-03T21:02:27.835Z,100059.75
2023-02-03T21:05:41.795Z,100050.44
2023-02-03T21:08:58.801Z,100053.72
2023-02-03T21:12:12.915Z,100055.66
2023-02-03T21:15:37.842Z,100070.63
2023-02-03T21:18:56.818Z,100099.44
2023-02-03T21:22:17.514Z,100092.22
2023-02-03T21:25:38.791Z,100094.53
2023-02-03T21:28:50.572Z,100086.91
2023-02-03T21:32:00.826Z,100110.03
2023-02-03T21:35:24.208Z,100110.56
2023-02-03T21:38:35.824Z,100109.91
2023-02-03T21:41:51.824Z,100109.81
2023-02-03T21:45:00.757Z,100121.41
2023-02-03T21:48:37.852Z,100128.56
2023-02-03T21:51:40.009Z,100145.53
2023-02-03T21:54:55.882Z,100134.38
2023-02-03T21:58:18.656Z,100133.13
2023-02-03T22:01:40.793Z,100126.88
2023-02-03T22:04:49.806Z,100114.22
2023-02-03T22:08:20.411Z,100118.44
2023-02-03T22:11:36.851Z,100126.28
2023-02-03T22:14:39.041Z,100149.03
2023-02-03T22:17:56.798Z,100134.09
2023-02-03T22:21:04.794Z,100139.31
2023-02-03T22:24:19.799Z,100145.75
2023-02-03T22:27:34.845Z,100142.09
2023-02-03T22:30:36.956Z,100141.87
2023-02-03T22:33:52.802Z,100154.72
2023-02-03T22:37:00.844Z,100151.69
2023-02-03T22:40:16.842Z,100165.63
2023-02-03T22:43:26.989Z,100161.59
2023-02-03T22:46:35.845Z,100165.00
2023-02-03T22:49:50.841Z,100202.38
2023-02-03T22:52:53.117Z,100197.91
2023-02-03T22:56:07.877Z,100204.69
2023-02-03T22:59:09.684Z,100180.88
2023-02-03T23:02:24.832Z,100196.41
2023-02-03T23:05:33.822Z,100189.13
2023-02-03T23:08:50.113Z,100209.13
2023-02-03T23:11:58.958Z,100194.31
2023-02-03T23:15:14.831Z,100187.41
2023-02-03T23:18:22.870Z,100176.84
2023-02-03T23:21:37.880Z,100169.69
2023-02-03T23:24:46.625Z,100170.44
2023-02-03T23:27:54.852Z,100177.06
2023-02-03T23:31:03.651Z,100168.78
2023-02-03T23:34:11.840Z,100166.84
2023-02-03T23:37:26.796Z,100153.25
2023-02-03T23:40:34.844Z,100154.94
2023-02-03T23:43:49.910Z,100155.13
2023-02-03T23:46:51.780Z,100145.72
2023-02-03T23:50:06.811Z,100149.22
2023-02-03T23:53:14.873Z,100142.66
2023-02-03T23:56:29.823Z,100147.31
2023-02-03T23:59:32.048Z,100149.28
